Cedarpines Park, California
Current Conditions -  °F | °C
As of 9:50 AM on Thursday 18 Dec 2014 (Local Time) from KSBD Reporting Station
Scattered Clouds Scattered Clouds  
Wind Chill: 55°   Ceiling: Unl
Heat Index: 55°   Visibility: 7mi
Dew Point: 41°   Wind: 0mph
Humidity: 58%   Direction: NA
Pressure: 30.21"   Gusts: NA
Location:  34.25°N, 117.33°W
Report Text: KSBD 181750Z 00000KT 7SM FEW040 SCT080 13/05 A3021
Loading
Personal Weather Stations






























Interactive Weather Map New forecast layout! Learn more

10-Day Weather Forecast

Advertisements
Track Severe Weather on mobile